createdAt,value
2019-05-07T00:00:43.854Z,72.20
2019-05-07T00:03:12.245Z,72.70
2019-05-07T00:05:42.607Z,73.10
2019-05-07T00:08:08.488Z,73.30
2019-05-07T00:10:36.368Z,73.60
2019-05-07T00:13:02.737Z,74.00
2019-05-07T00:15:29.003Z,74.00
2019-05-07T00:17:55.653Z,74.50
2019-05-07T00:20:23.138Z,74.60
2019-05-07T00:22:49.448Z,74.90
2019-05-07T00:25:15.780Z,75.00
2019-05-07T00:27:42.712Z,75.30
2019-05-07T00:30:09.427Z,75.60
2019-05-07T00:32:35.692Z,75.80
2019-05-07T00:35:09.685Z,75.90
2019-05-07T00:37:45.090Z,76.00
2019-05-07T00:40:29.008Z,75.80
2019-05-07T00:43:06.245Z,75.70
2019-05-07T00:45:43.602Z,75.40
2019-05-07T00:48:20.029Z,75.20
2019-05-07T00:50:52.732Z,75.20
2019-05-07T00:53:19.306Z,75.40
2019-05-07T00:55:48.775Z,75.30
2019-05-07T00:58:15.236Z,75.30
2019-05-07T01:00:42.204Z,75.20
2019-05-07T01:03:08.652Z,75.30
2019-05-07T01:05:34.920Z,75.30
2019-05-07T01:08:02.593Z,75.10
2019-05-07T01:10:29.150Z,75.40
2019-05-07T01:12:55.462Z,75.60
2019-05-07T01:15:30.672Z,75.80
2019-05-07T01:17:52.049Z,75.90
2019-05-07T01:20:18.534Z,75.90
2019-05-07T01:22:44.896Z,76.10
2019-05-07T01:25:12.883Z,76.10
2019-05-07T01:27:39.377Z,76.20
2019-05-07T01:30:06.156Z,76.30
2019-05-07T01:32:37.294Z,76.40
2019-05-07T01:35:15.970Z,77.20
2019-05-07T01:37:42.490Z,76.70
2019-05-07T01:40:09.080Z,76.70
2019-05-07T01:42:36.716Z,76.70
2019-05-07T01:45:07.081Z,76.80
2019-05-07T01:47:33.454Z,77.10
2019-05-07T01:49:59.697Z,77.50
2019-05-07T01:52:25.938Z,77.60
2019-05-07T01:54:52.413Z,77.70
2019-05-07T01:57:18.822Z,77.90
2019-05-07T01:59:45.122Z,78.10
2019-05-07T02:02:15.916Z,78.30
2019-05-07T02:04:44.136Z,78.60
2019-05-07T02:07:18.330Z,78.90
2019-05-07T02:09:46.537Z,79.00
2019-05-07T02:12:14.800Z,79.20
2019-05-07T02:14:42.235Z,79.30
2019-05-07T02:17:08.716Z,79.40
2019-05-07T02:19:34.995Z,79.60
2019-05-07T02:22:02.852Z,79.70
2019-05-07T02:24:29.251Z,79.80
2019-05-07T02:26:55.547Z,79.70
2019-05-07T02:29:22.818Z,79.90
2019-05-07T02:31:49.305Z,80.00
2019-05-07T02:34:15.558Z,80.10
2019-05-07T02:36:45.572Z,80.00
2019-05-07T02:39:13.712Z,80.30
2019-05-07T02:41:40.225Z,80.40
2019-05-07T02:44:06.644Z,80.40
2019-05-07T02:46:43.928Z,80.40
2019-05-07T02:49:14.759Z,80.40
2019-05-07T02:51:45.596Z,80.50
2019-05-07T02:54:19.762Z,80.60
2019-05-07T02:56:46.860Z,80.80
2019-05-07T02:59:13.615Z,80.90
2019-05-07T03:01:43.217Z,80.90
2019-05-07T03:04:08.808Z,81.20
2019-05-07T03:06:35.300Z,81.20
2019-05-07T03:09:03.219Z,81.20
2019-05-07T03:11:29.688Z,81.50
2019-05-07T03:14:02.435Z,81.70
2019-05-07T03:16:39.688Z,81.70
2019-05-07T03:18:56.621Z,82.40
2019-05-07T03:21:23.737Z,81.70
2019-05-07T03:24:07.326Z,81.80
2019-05-07T03:26:35.642Z,81.90
2019-05-07T03:29:04.121Z,82.00
2019-05-07T03:31:36.434Z,82.10
2019-05-07T03:34:19.050Z,82.20
2019-05-07T03:36:55.821Z,82.20
2019-05-07T03:39:18.749Z,82.40
2019-05-07T03:41:45.006Z,82.20
2019-05-07T03:44:33.595Z,82.20
2019-05-07T03:47:19.120Z,82.20
2019-05-07T03:49:45.471Z,82.10
2019-05-07T03:52:13.628Z,82.20
2019-05-07T03:54:42.872Z,82.20
2019-05-07T03:57:11.229Z,82.20
2019-05-07T03:59:37.312Z,82.20
2019-05-07T04:02:04.828Z,82.40
2019-05-07T04:04:33.197Z,82.60
2019-05-07T04:06:59.370Z,82.70
2019-05-07T04:09:33.374Z,82.90
2019-05-07T04:12:08.751Z,82.90
2019-05-07T04:14:35.112Z,83.00
2019-05-07T04:17:14.476Z,83.10
2019-05-07T04:19:32.653Z,83.60
2019-05-07T04:21:58.138Z,83.80
2019-05-07T04:24:33.721Z,83.80
2019-05-07T04:27:03.752Z,83.80
2019-05-07T04:29:30.374Z,83.80
2019-05-07T04:31:58.237Z,84.10
2019-05-07T04:35:04.088Z,84.10
2019-05-07T04:38:05.437Z,83.70
2019-05-07T04:40:53.759Z,83.10
2019-05-07T04:43:47.895Z,82.90
2019-05-07T04:46:15.288Z,82.50
2019-05-07T04:52:59.032Z,81.90
2019-05-07T04:55:13.846Z,81.80
2019-05-07T04:57:36.513Z,81.50
2019-05-07T05:03:30.356Z,80.90
2019-05-07T05:09:44.923Z,78.90
2019-05-07T05:12:13.150Z,78.50
2019-05-07T05:14:46.820Z,77.80
2019-05-07T05:17:16.492Z,77.30
2019-05-07T05:19:43.998Z,77.00
2019-05-07T05:22:59.923Z,76.00
2019-05-07T05:25:26.042Z,73.80
2019-05-07T05:33:46.460Z,61.50
2019-05-07T05:36:42.291Z,58.20
2019-05-07T05:39:09.919Z,55.60
2019-05-07T05:41:51.807Z,52.70
2019-05-07T05:44:22.613Z,51.40
2019-05-07T05:46:48.463Z,49.30
2019-05-07T05:49:14.715Z,47.90
2019-05-07T05:51:43.100Z,45.70
2019-05-07T05:54:28.021Z,45.30
2019-05-07T05:57:02.649Z,43.40
2019-05-07T05:59:47.415Z,42.10
2019-05-07T06:02:18.757Z,41.10
2019-05-07T06:05:06.404Z,40.20
2019-05-07T06:07:43.481Z,39.30
2019-05-07T06:10:17.806Z,38.70
2019-05-07T06:12:46.113Z,37.90
2019-05-07T06:15:22.209Z,36.70
2019-05-07T06:17:56.389Z,36.10
2019-05-07T06:20:24.971Z,34.30
2019-05-07T06:23:09.871Z,35.20
2019-05-07T06:25:36.329Z,35.20
2019-05-07T06:28:02.822Z,33.80
2019-05-07T06:30:29.258Z,31.40
2019-05-07T06:32:55.511Z,32.40
2019-05-07T06:35:22.981Z,32.20
2019-05-07T06:37:49.524Z,32.90
2019-05-07T06:40:25.561Z,32.40
2019-05-07T06:43:06.852Z,32.20
2019-05-07T06:45:51.993Z,31.90
2019-05-07T06:48:33.034Z,32.30
2019-05-07T06:50:55.486Z,32.30
2019-05-07T06:53:22.303Z,32.30
2019-05-07T06:55:48.615Z,33.20
2019-05-07T06:58:14.885Z,31.80
2019-05-07T07:00:44.570Z,31.10
2019-05-07T07:03:27.964Z,31.70
2019-05-07T07:05:56.116Z,31.20
2019-05-07T07:08:24.288Z,30.90
2019-05-07T07:11:02.617Z,32.20
2019-05-07T07:13:29.032Z,32.00
2019-05-07T07:15:55.347Z,30.90
2019-05-07T07:18:23.069Z,31.70
2019-05-07T07:20:52.076Z,31.20
2019-05-07T07:30:29.235Z,31.70
2019-05-07T07:32:59.548Z,32.00
2019-05-07T07:45:15.245Z,32.70
2019-05-07T07:47:42.217Z,32.40
2019-05-07T07:50:09.091Z,30.80
2019-05-07T07:52:35.337Z,32.10
2019-05-07T07:55:03.030Z,31.30
2019-05-07T07:57:48.015Z,32.10
2019-05-07T08:00:18.282Z,31.90
2019-05-07T08:02:46.312Z,30.30
2019-05-07T08:05:12.696Z,30.20
2019-05-07T08:07:42.451Z,31.80
2019-05-07T08:10:09.090Z,34.00
2019-05-07T08:12:35.445Z,34.70
2019-05-07T08:15:14.607Z,33.20
2019-05-07T08:17:32.634Z,32.20
2019-05-07T08:19:59.045Z,31.80
2019-05-07T08:22:25.518Z,31.60
2019-05-07T08:24:53.739Z,30.50
2019-05-07T08:27:22.106Z,30.20
2019-05-07T08:30:44.770Z,32.50
2019-05-07T08:39:19.341Z,29.90
2019-05-07T08:45:04.329Z,28.20
2019-05-07T08:50:57.937Z,30.40
2019-05-07T08:53:39.597Z,30.20
2019-05-07T09:02:54.685Z,33.10
2019-05-07T09:06:02.481Z,34.10
2019-05-07T09:15:32.127Z,36.00
2019-05-07T09:30:53.214Z,36.50
2019-05-07T09:33:24.044Z,35.60
2019-05-07T09:35:52.884Z,32.90
2019-05-07T09:38:19.451Z,33.30
2019-05-07T09:40:45.708Z,31.90
2019-05-07T09:43:12.018Z,34.30
2019-05-07T09:45:38.430Z,33.10
2019-05-07T09:48:05.066Z,34.10
2019-05-07T09:50:32.486Z,34.10
2019-05-07T09:52:58.962Z,35.60
2019-05-07T09:55:25.328Z,35.40
2019-05-07T09:57:52.771Z,36.20
2019-05-07T10:00:22.600Z,34.80
2019-05-07T10:02:49.120Z,31.70
2019-05-07T10:05:15.791Z,35.80
2019-05-07T10:07:42.489Z,32.10
2019-05-07T10:10:11.980Z,36.00
2019-05-07T10:12:42.068Z,32.40
2019-05-07T10:15:09.077Z,32.00
2019-05-07T10:17:37.342Z,32.10
2019-05-07T10:20:18.198Z,34.20
2019-05-07T10:22:36.045Z,32.00
2019-05-07T10:25:04.423Z,31.90
2019-05-07T10:27:32.505Z,34.70
2019-05-07T10:29:59.324Z,36.10
2019-05-07T10:32:25.582Z,33.70
2019-05-07T10:34:52.564Z,31.60
2019-05-07T10:37:19.399Z,32.60
2019-05-07T10:39:55.867Z,34.80
2019-05-07T10:42:22.715Z,34.30
2019-05-07T10:45:06.276Z,38.20
2019-05-07T10:47:41.868Z,34.00
2019-05-07T10:50:35.446Z,37.50
2019-05-07T10:52:52.846Z,39.30
2019-05-07T10:55:19.260Z,36.90
2019-05-07T10:57:45.807Z,36.00
2019-05-07T11:00:16.280Z,33.90
2019-05-07T11:02:42.697Z,33.60
2019-05-07T11:05:09.244Z,34.70
2019-05-07T11:07:35.602Z,31.80
2019-05-07T11:10:06.327Z,32.80
2019-05-07T11:12:32.614Z,32.60
2019-05-07T11:14:59.453Z,33.50
2019-05-07T11:17:33.611Z,52.40
2019-05-07T11:19:59.950Z,38.50
2019-05-07T11:22:26.203Z,37.20
2019-05-07T11:24:52.579Z,38.10
2019-05-07T11:27:22.425Z,35.40
2019-05-07T11:29:51.462Z,33.60
2019-05-07T11:32:17.676Z,34.20
2019-05-07T11:34:44.633Z,33.70
2019-05-07T11:37:11.964Z,34.40
2019-05-07T11:39:38.426Z,35.00
2019-05-07T11:42:22.122Z,36.10
2019-05-07T11:44:49.268Z,35.60
2019-05-07T11:47:22.632Z,36.60
2019-05-07T11:50:07.306Z,36.90
2019-05-07T11:52:35.933Z,37.10
2019-05-07T11:55:03.713Z,36.40
2019-05-07T11:57:30.027Z,38.40
2019-05-07T11:59:56.291Z,38.00
2019-05-07T12:02:22.743Z,36.90
2019-05-07T12:04:48.983Z,36.90
2019-05-07T12:07:15.333Z,35.90
2019-05-07T12:09:41.692Z,36.00
2019-05-07T12:12:07.961Z,36.40
2019-05-07T12:14:34.919Z,37.50
2019-05-07T12:17:03.506Z,37.50
2019-05-07T12:19:29.750Z,36.80
2019-05-07T12:21:56.105Z,36.80
2019-05-07T12:24:22.772Z,37.10
2019-05-07T12:26:49.018Z,36.10
2019-05-07T12:29:15.272Z,36.70
2019-05-07T12:31:49.621Z,36.80
2019-05-07T12:34:17.800Z,37.70
2019-05-07T12:36:44.116Z,38.70
2019-05-07T12:39:12.566Z,37.50
2019-05-07T12:41:38.818Z,37.30
2019-05-07T12:44:07.487Z,37.60
2019-05-07T12:46:34.734Z,37.30
2019-05-07T12:49:03.140Z,37.90
2019-05-07T12:51:36.228Z,38.00
2019-05-07T12:53:59.697Z,39.00
2019-05-07T12:56:25.972Z,37.60
2019-05-07T12:58:52.237Z,40.00
2019-05-07T13:01:32.982Z,37.90
2019-05-07T13:04:06.749Z,37.70
2019-05-07T13:06:35.062Z,38.40
2019-05-07T13:09:02.914Z,38.50
2019-05-07T13:11:35.808Z,38.10
2019-05-07T13:14:03.399Z,37.60
2019-05-07T13:16:29.960Z,38.30
2019-05-07T13:18:56.221Z,38.60
2019-05-07T13:21:22.683Z,39.10
2019-05-07T13:23:48.988Z,37.30
2019-05-07T13:26:15.628Z,38.00
2019-05-07T13:28:44.237Z,38.30
2019-05-07T13:31:10.173Z,38.60
2019-05-07T13:33:38.125Z,38.20
2019-05-07T13:36:05.867Z,39.10
2019-05-07T13:38:51.760Z,37.50
2019-05-07T13:41:36.645Z,39.30
2019-05-07T13:44:12.378Z,39.60
2019-05-07T13:46:42.142Z,40.50
2019-05-07T13:49:09.771Z,40.60
2019-05-07T13:51:36.509Z,41.00
2019-05-07T13:54:03.274Z,39.00
2019-05-07T13:56:29.785Z,38.70
2019-05-07T13:58:56.132Z,38.20
2019-05-07T14:01:24.572Z,38.50
2019-05-07T14:03:50.860Z,40.00
2019-05-07T14:06:35.850Z,40.50
2019-05-07T14:09:08.120Z,38.90
2019-05-07T14:11:34.985Z,40.00
2019-05-07T14:14:01.809Z,38.60
2019-05-07T14:16:28.966Z,39.60
2019-05-07T14:18:55.664Z,38.70
2019-05-07T14:21:22.001Z,38.70
2019-05-07T14:23:48.388Z,39.00
2019-05-07T14:26:14.626Z,39.20
2019-05-07T14:28:42.277Z,38.40
2019-05-07T14:31:12.323Z,38.80
2019-05-07T14:33:49.719Z,37.70
2019-05-07T14:36:22.387Z,39.20
2019-05-07T14:38:52.040Z,38.40
2019-05-07T14:41:18.466Z,37.50
2019-05-07T14:44:03.113Z,37.10
2019-05-07T14:46:43.628Z,37.60
2019-05-07T14:48:58.089Z,37.30
2019-05-07T14:51:24.439Z,37.50
2019-05-07T14:53:52.997Z,38.50
2019-05-07T14:56:19.254Z,37.50
2019-05-07T14:58:46.035Z,38.50
2019-05-07T15:01:24.095Z,37.90
2019-05-07T15:03:51.683Z,38.40
2019-05-07T15:06:18.454Z,38.00
2019-05-07T15:08:48.554Z,38.40
2019-05-07T15:11:14.985Z,38.90
2019-05-07T15:13:42.767Z,39.60
2019-05-07T15:16:09.136Z,40.00
2019-05-07T15:18:46.042Z,39.50
2019-05-07T15:21:18.024Z,40.30
2019-05-07T15:44:14.668Z,40.40
2019-05-07T15:47:47.601Z,40.90
2019-05-07T15:50:38.223Z,41.20
2019-05-07T15:53:54.002Z,40.90
2019-05-07T16:03:25.705Z,40.80
2019-05-07T16:05:54.657Z,41.20
2019-05-07T16:08:28.161Z,41.10
2019-05-07T16:10:55.577Z,41.00
2019-05-07T16:13:32.736Z,41.40
2019-05-07T16:16:12.634Z,41.10
2019-05-07T16:18:58.665Z,40.60
2019-05-07T16:21:32.455Z,41.50
2019-05-07T16:24:00.558Z,41.60
2019-05-07T16:26:32.544Z,40.70
2019-05-07T16:29:04.661Z,41.20
2019-05-07T16:31:33.216Z,41.20
2019-05-07T16:34:02.773Z,41.50
2019-05-07T16:36:33.507Z,40.90
2019-05-07T16:39:03.636Z,41.20
2019-05-07T16:41:37.997Z,41.30
2019-05-07T16:44:05.165Z,41.40
2019-05-07T16:46:37.419Z,41.70
2019-05-07T18:07:47.942Z,44.30
2019-05-07T20:10:07.771Z,55.90
2019-05-07T20:12:34.067Z,56.60
2019-05-07T20:15:02.657Z,57.20
2019-05-07T20:17:34.097Z,56.50
2019-05-07T20:20:02.939Z,56.70
2019-05-07T20:22:28.721Z,56.80
2019-05-07T20:25:11.754Z,55.20
2019-05-07T20:27:26.443Z,55.50
2019-05-07T20:29:53.208Z,55.60
2019-05-07T20:32:24.891Z,56.40
2019-05-07T20:34:52.651Z,56.00
2019-05-07T20:37:19.014Z,54.70
2019-05-07T20:39:45.328Z,54.90
2019-05-07T20:42:12.420Z,55.40
2019-05-07T20:44:42.453Z,55.30
2019-05-07T20:47:08.573Z,55.60
2019-05-07T20:49:36.611Z,55.90
2019-05-07T20:52:03.096Z,55.80
2019-05-07T20:54:34.113Z,55.50
2019-05-07T20:57:08.424Z,56.30
2019-05-07T20:59:34.695Z,56.90
2019-05-07T21:02:02.298Z,56.50
2019-05-07T21:04:28.684Z,56.60
2019-05-07T21:06:54.935Z,56.90
2019-05-07T21:09:22.055Z,57.00
2019-05-07T21:11:48.453Z,56.70
2019-05-07T21:14:14.701Z,56.20
2019-05-07T21:16:42.530Z,56.60
2019-05-07T21:19:08.882Z,57.40
2019-05-07T21:21:35.148Z,57.90
2019-05-07T21:24:02.093Z,57.90
2019-05-07T21:26:28.521Z,58.10
2019-05-07T21:28:54.862Z,58.60
2019-05-07T21:31:22.841Z,58.90
2019-05-07T21:33:49.458Z,59.50
2019-05-07T21:36:15.725Z,60.40
2019-05-07T21:38:42.657Z,61.10
2019-05-07T21:41:09.072Z,61.30
2019-05-07T21:43:35.321Z,61.60
2019-05-07T21:46:02.398Z,62.10
2019-05-07T21:48:29.952Z,62.80
2019-05-07T21:50:56.223Z,63.20
2019-05-07T21:53:26.109Z,63.50
2019-05-07T21:56:01.689Z,63.90
2019-05-07T21:58:32.859Z,64.50
2019-05-07T22:01:02.067Z,65.10
2019-05-07T22:03:28.585Z,65.40
2019-05-07T22:05:54.950Z,65.90
2019-05-07T22:08:21.866Z,65.90
2019-05-07T22:10:48.320Z,66.10
2019-05-07T22:13:14.604Z,66.30
2019-05-07T22:15:42.371Z,66.30
2019-05-07T22:18:08.885Z,66.70
2019-05-07T22:20:35.129Z,67.10
2019-05-07T22:23:02.811Z,67.40
2019-05-07T22:25:29.151Z,67.90
2019-05-07T22:27:55.644Z,68.30
2019-05-07T22:30:23.812Z,68.60
2019-05-07T22:32:52.760Z,68.90
2019-05-07T22:35:22.676Z,69.60
2019-05-07T22:37:48.973Z,69.90
2019-05-07T22:40:19.131Z,70.10
2019-05-07T22:42:47.277Z,70.30
2019-05-07T22:45:13.989Z,70.80
2019-05-07T22:47:41.994Z,70.70
2019-05-07T22:50:08.606Z,71.00
2019-05-07T22:52:34.832Z,71.30
2019-05-07T22:55:01.182Z,71.60
2019-05-07T22:57:35.321Z,71.80
2019-05-07T23:00:05.474Z,72.00
2019-05-07T23:02:32.212Z,72.40
2019-05-07T23:04:58.497Z,72.60
2019-05-07T23:07:24.780Z,72.80
2019-05-07T23:09:52.196Z,73.40
2019-05-07T23:12:18.560Z,73.40
2019-05-07T23:14:44.788Z,73.40
2019-05-07T23:17:12.611Z,74.00
2019-05-07T23:19:38.879Z,74.10
2019-05-07T23:22:05.143Z,74.10
2019-05-07T23:24:31.938Z,74.30
2019-05-07T23:26:58.162Z,74.30
2019-05-07T23:29:24.425Z,74.30
2019-05-07T23:31:52.977Z,74.40
2019-05-07T23:34:18.768Z,74.40
2019-05-07T23:36:45.014Z,74.50
2019-05-07T23:39:13.251Z,74.60
2019-05-07T23:41:47.144Z,74.90
2019-05-07T23:44:15.222Z,75.10
2019-05-07T23:46:42.613Z,75.00
2019-05-07T23:49:09.814Z,75.40
2019-05-07T23:51:36.191Z,75.70
2019-05-07T23:54:02.986Z,75.80
2019-05-07T23:56:29.171Z,76.10
2019-05-07T23:58:55.463Z,76.10
